Time;durP1;ratioP1;P1;durP2;ratioP2;P2;SDS_P1;SDS_P2;PMS_P1;PMS_P2;Temp;Humidity;BMP_temperature;BMP_pressure;BME280_temperature;BME280_humidity;BME280_pressure;Samples;Min_cycle;Max_cycle;Signal;HPM_P1;HPM_P2
2022/01/03 00:00:07;;;;;;;9.32;1.65;;;11.50;99.90;;;;;;5090242;28;20055;-76
2022/01/03 00:02:33;;;;;;;3.70;1.30;;;11.40;99.90;;;;;;5090662;28;20020;-75
2022/01/03 00:04:59;;;;;;;3.40;0.65;;;11.40;99.90;;;;;;5090342;28;20392;-76
2022/01/03 00:07:26;;;;;;;3.20;0.70;;;11.40;99.90;;;;;;5090237;28;20035;-74
2022/01/03 00:09:52;;;;;;;6.13;1.10;;;11.30;99.90;;;;;;5090380;28;20024;-75
2022/01/03 00:12:21;;;;;;;10.00;2.05;;;11.20;99.90;;;;;;5090498;28;20048;-75
2022/01/03 00:14:49;;;;;;;5.17;0.97;;;11.30;99.90;;;;;;5090886;28;20480;-75
2022/01/03 00:17:14;;;;;;;3.45;0.95;;;11.20;99.90;;;;;;5090379;28;20027;-74
2022/01/03 00:19:40;;;;;;;4.85;0.77;;;11.30;99.90;;;;;;5090293;28;20032;-77
2022/01/03 00:22:10;;;;;;;4.45;0.93;;;11.30;99.90;;;;;;5089839;28;20024;-76
2022/01/03 00:24:38;;;;;;;6.35;1.13;;;11.30;99.90;;;;;;5090127;28;20028;-74
2022/01/03 00:27:09;;;;;;;3.72;0.90;;;11.40;99.90;;;;;;5090075;28;20016;-75
2022/01/03 00:29:45;;;;;;;6.22;1.17;;;11.40;99.90;;;;;;5090113;28;20024;-76
2022/01/03 00:32:11;;;;;;;1.80;1.00;;;9.60;99.90;;;;;;5090255;28;20489;-76
2022/01/03 00:34:38;;;;;;;2.78;0.50;;;11.20;99.90;;;;;;5089941;28;20615;-76
2022/01/03 00:37:09;;;;;;;3.20;1.00;;;11.20;99.90;;;;;;5089808;28;20154;-75
2022/01/03 00:39:36;;;;;;;3.00;0.77;;;11.30;99.90;;;;;;5089732;28;20069;-74
2022/01/03 00:42:02;;;;;;;5.22;0.95;;;11.30;99.90;;;;;;5071936;28;20023;-75
2022/01/03 00:44:28;;;;;;;3.85;0.80;;;11.40;99.90;;;;;;5089979;28;20040;-75
2022/01/03 00:46:55;;;;;;;1.98;0.85;;;11.40;99.90;;;;;;5089818;28;20017;-73
2022/01/03 00:49:21;;;;;;;6.68;0.85;;;11.30;99.90;;;;;;5090069;28;20077;-73
2022/01/03 00:51:47;;;;;;;4.90;0.98;;;11.40;99.90;;;;;;5090121;28;20028;-73
2022/01/03 00:54:13;;;;;;;4.70;1.02;;;11.40;99.90;;;;;;5089982;28;20096;-73
2022/01/03 00:56:44;;;;;;;4.43;0.65;;;11.30;99.90;;;;;;5071695;28;20115;-74
2022/01/03 00:59:15;;;;;;;1.85;0.57;;;11.30;99.90;;;;;;5089310;28;20024;-73
2022/01/03 01:01:51;;;;;;;2.08;1.25;;;11.30;99.90;;;;;;5089689;28;20031;-74
2022/01/03 01:04:22;;;;;;;7.70;0.73;;;11.30;99.90;;;;;;5089865;28;20483;-75
2022/01/03 01:06:53;;;;;;;2.72;0.50;;;11.40;99.90;;;;;;5089831;28;20092;-75
2022/01/03 01:09:21;;;;;;;1.77;0.93;;;11.40;99.90;;;;;;5089747;28;20051;-74
2022/01/03 01:11:50;;;;;;;1.55;1.08;;;11.30;99.90;;;;;;5089665;28;20354;-75
2022/01/03 01:14:16;;;;;;;3.28;0.90;;;11.40;99.90;;;;;;5089631;28;20039;-74
2022/01/03 01:16:42;;;;;;;2.95;1.00;;;11.40;99.90;;;;;;5089563;28;20388;-74
2022/01/03 01:19:09;;;;;;;1.48;0.70;;;11.40;99.90;;;;;;5089545;28;20464;-73
2022/01/03 01:21:35;;;;;;;6.13;0.75;;;11.40;99.90;;;;;;5089644;28;20028;-73
2022/01/03 01:24:01;;;;;;;8.05;1.25;;;11.40;99.90;;;;;;5089497;28;20343;-74
2022/01/03 01:29:12;;;;;;;5.90;0.80;;;11.30;99.90;;;;;;5089594;28;20031;-74
2022/01/03 01:31:49;;;;;;;4.00;0.70;;;11.30;99.90;;;;;;5089495;28;20031;-75
2022/01/03 01:34:22;;;;;;;2.90;1.08;;;11.40;99.90;;;;;;5089410;28;20020;-73
2022/01/03 01:36:51;;;;;;;3.47;0.70;;;11.30;99.90;;;;;;5089141;28;20137;-73
2022/01/03 01:39:19;;;;;;;3.10;0.73;;;11.30;99.90;;;;;;5089294;28;20082;-73
2022/01/03 01:41:46;;;;;;;3.85;1.30;;;11.30;99.90;;;;;;5089460;28;20035;-74
2022/01/03 01:44:12;;;;;;;3.97;0.70;;;11.40;99.90;;;;;;5089276;28;20028;-73
2022/01/03 01:46:47;;;;;;;4.18;0.65;;;11.40;99.90;;;;;;5071180;28;20073;-74
2022/01/03 01:49:18;;;;;;;4.05;0.80;;;11.50;99.90;;;;;;5105759;28;20032;-74
2022/01/03 01:51:55;;;;;;;3.47;1.05;;;11.50;99.90;;;;;;5108640;28;20030;-74
2022/01/03 01:54:29;;;;;;;1.75;0.80;;;11.50;99.90;;;;;;5109649;28;20251;-75
2022/01/03 01:57:18;;;;;;;6.32;1.45;;;11.40;99.90;;;;;;5109624;28;20024;-73
2022/01/03 02:00:02;;;;;;;4.13;0.77;;;11.40;99.90;;;;;;5090727;28;20032;-74
2022/01/03 02:02:36;;;;;;;1.92;0.52;;;11.50;99.90;;;;;;5109464;28;20057;-74
2022/01/03 02:05:29;;;;;;;6.95;1.10;;;11.40;99.90;;;;;;5109460;28;20035;-74
2022/01/03 02:08:03;;;;;;;4.85;0.52;;;11.40;99.90;;;;;;5109200;28;20518;-73
2022/01/03 02:10:49;;;;;;;4.28;0.95;;;11.30;99.90;;;;;;5111347;28;20197;-74
2022/01/03 02:13:22;;;;;;;4.68;0.70;;;11.20;99.90;;;;;;5113119;28;20065;-74
2022/01/03 02:15:57;;;;;;;6.82;1.45;;;11.20;99.90;;;;;;5113144;28;20020;-73
2022/01/03 02:18:25;;;;;;;3.70;1.25;;;11.20;99.90;;;;;;5113056;28;20204;-74
2022/01/03 02:20:52;;;;;;;1.08;0.35;;;11.20;99.90;;;;;;5113255;28;20065;-74
2022/01/03 02:23:17;;;;;;;1.90;1.05;;;11.10;99.90;;;;;;5094324;28;20034;-75
2022/01/03 02:25:43;;;;;;;7.40;0.68;;;11.10;99.90;;;;;;5113186;28;20031;-78
2022/01/03 02:28:09;;;;;;;0.45;0.45;;;11.10;99.90;;;;;;5113154;28;20122;-75
2022/01/03 02:30:35;;;;;;;1.63;0.65;;;11.10;99.90;;;;;;5112941;28;20383;-75
2022/01/03 02:33:02;;;;;;;1.50;0.70;;;11.20;99.90;;;;;;5112695;28;20024;-74
2022/01/03 02:35:29;;;;;;;4.00;0.63;;;11.10;99.90;;;;;;5113247;28;20019;-76
2022/01/03 02:37:54;;;;;;;4.03;1.17;;;11.10;99.90;;;;;;5112514;28;20028;-75
2022/01/03 02:40:21;;;;;;;3.55;1.40;;;11.10;99.90;;;;;;5112579;28;20048;-75
2022/01/03 02:42:48;;;;;;;1.58;1.05;;;11.20;99.90;;;;;;5112699;28;20098;-73
2022/01/03 02:45:18;;;;;;;2.50;0.47;;;11.10;99.90;;;;;;5112552;28;20056;-76
2022/01/03 02:47:45;;;;;;;;;;;11.10;99.90;;;;;;5112761;28;20047;-75
2022/01/03 02:50:14;;;;;;;3.25;0.68;;;11.10;99.90;;;;;;5112777;28;20009;-75
2022/01/03 02:52:39;;;;;;;14.82;2.13;;;11.00;99.90;;;;;;5112151;28;20387;-76
2022/01/03 02:55:07;;;;;;;0.70;0.50;;;11.00;99.90;;;;;;5112296;28;20027;-73
2022/01/03 02:57:34;;;;;;;6.18;0.75;;;11.10;99.90;;;;;;5093589;28;20019;-76
2022/01/03 03:00:00;;;;;;;1.70;0.80;;;11.00;99.90;;;;;;5112290;28;20508;-74
2022/01/03 03:02:28;;;;;;;1.02;0.93;;;10.90;99.90;;;;;;5112180;28;20106;-74
2022/01/03 03:04:59;;;;;;;7.85;0.93;;;10.90;99.90;;;;;;5112121;28;20047;-75
2022/01/03 03:07:27;;;;;;;5.63;1.15;;;11.00;99.90;;;;;;5112849;28;20024;-74
2022/01/03 03:09:54;;;;;;;4.90;1.23;;;11.00;99.90;;;;;;5111949;28;20032;-75
2022/01/03 03:12:20;;;;;;;7.05;0.70;;;10.90;99.90;;;;;;5111941;28;20023;-74
2022/01/03 03:14:46;;;;;;;6.75;1.65;;;10.80;99.90;;;;;;5111810;28;20468;-74
2022/01/03 03:17:12;;;;;;;4.53;0.60;;;10.80;99.90;;;;;;5112172;28;20028;-77
2022/01/03 03:19:54;;;;;;;2.30;0.60;;;10.80;99.90;;;;;;5112061;28;20034;-74
2022/01/03 03:22:20;;;;;;;5.38;0.82;;;10.80;99.90;;;;;;5111791;28;20026;-73
2022/01/03 03:24:46;;;;;;;5.03;0.70;;;10.70;99.90;;;;;;5111441;28;20032;-74
2022/01/03 03:27:12;;;;;;;2.65;0.30;;;10.70;99.90;;;;;;5111739;28;20020;-75
2022/01/03 03:29:51;;;;;;;6.50;0.95;;;10.80;99.90;;;;;;5111666;28;20483;-74
2022/01/03 03:32:18;;;;;;;2.35;0.70;;;10.80;99.90;;;;;;5111584;28;20042;-74
2022/01/03 03:34:46;;;;;;;3.80;0.40;;;10.70;99.90;;;;;;5111534;28;20132;-75
2022/01/03 03:37:12;;;;;;;4.32;0.73;;;10.70;99.90;;;;;;5111440;28;20020;-74
2022/01/03 03:39:39;;;;;;;2.97;0.47;;;10.70;99.90;;;;;;5111020;28;20082;-75
2022/01/03 03:42:06;;;;;;;1.45;0.57;;;10.80;99.90;;;;;;5111745;28;20020;-74
2022/01/03 03:44:33;;;;;;;2.35;0.63;;;10.80;99.90;;;;;;5111577;28;20020;-74
2022/01/03 03:46:59;;;;;;;2.70;0.55;;;10.80;99.90;;;;;;5111464;28;20387;-75
2022/01/03 03:49:25;;;;;;;0.90;0.60;;;10.80;99.90;;;;;;5107161;28;20024;-75
2022/01/03 03:51:51;;;;;;;4.47;0.50;;;10.80;99.90;;;;;;5110312;28;20020;-74
2022/01/03 03:54:17;;;;;;;3.83;1.10;;;10.70;99.90;;;;;;5110712;28;20019;-75
2022/01/03 03:56:43;;;;;;;1.80;0.93;;;10.80;99.90;;;;;;5110849;28;20422;-75
2022/01/03 03:59:09;;;;;;;4.55;0.75;;;10.80;99.90;;;;;;5110999;28;20069;-74
2022/01/03 04:01:35;;;;;;;2.28;0.57;;;10.80;99.90;;;;;;5110819;28;20027;-75
2022/01/03 04:04:00;;;;;;;2.40;0.60;;;10.70;99.90;;;;;;5110728;28;20476;-75
2022/01/03 04:06:26;;;;;;;1.73;0.57;;;10.70;99.90;;;;;;5110730;28;20300;-73
2022/01/03 04:08:52;;;;;;;8.73;0.77;;;10.80;99.90;;;;;;5110547;28;20020;-73
2022/01/03 04:11:18;;;;;;;2.40;1.27;;;10.70;99.90;;;;;;5110771;28;20409;-74
2022/01/03 04:13:44;;;;;;;3.30;0.60;;;10.70;99.90;;;;;;5110880;28;20020;-75
2022/01/03 04:16:10;;;;;;;1.05;0.70;;;10.60;99.90;;;;;;5110734;28;20034;-74
2022/01/03 04:18:36;;;;;;;1.00;0.45;;;10.70;99.90;;;;;;5110855;28;20031;-74
2022/01/03 04:21:02;;;;;;;0.77;0.40;;;10.70;99.90;;;;;;5110609;28;20020;-73
2022/01/03 04:23:28;;;;;;;2.35;0.77;;;10.60;99.90;;;;;;5110401;28;20027;-73
2022/01/03 04:25:54;;;;;;;3.90;1.00;;;10.70;99.90;;;;;;5110316;28;20116;-73
2022/01/03 04:28:20;;;;;;;6.45;0.88;;;10.80;99.90;;;;;;5110614;28;20349;-73
2022/01/03 04:30:46;;;;;;;3.30;0.52;;;10.70;99.90;;;;;;5110397;28;20080;-75
2022/01/03 04:33:12;;;;;;;0.93;0.28;;;10.60;99.90;;;;;;5110275;28;20039;-75
2022/01/03 04:35:38;;;;;;;3.13;0.55;;;10.60;99.90;;;;;;5110725;28;20023;-74
2022/01/03 04:38:05;;;;;;;2.28;0.70;;;10.70;99.90;;;;;;5109896;28;20032;-75
2022/01/03 04:40:32;;;;;;;2.40;0.30;;;10.70;99.90;;;;;;5110431;28;20028;-75
2022/01/03 04:42:58;;;;;;;2.33;0.88;;;10.80;99.90;;;;;;5111520;28;20023;-75
2022/01/03 04:45:23;;;;;;;1.25;0.73;;;10.80;99.90;;;;;;5110128;28;20261;-74
2022/01/03 04:47:49;;;;;;;2.05;0.52;;;10.70;99.90;;;;;;5110375;28;20684;-74
2022/01/03 04:50:15;;;;;;;1.73;0.47;;;10.70;99.90;;;;;;5110381;28;20031;-76
2022/01/03 04:52:40;;;;;;;6.80;0.60;;;10.50;99.90;;;;;;5110424;28;20042;-76
2022/01/03 04:55:06;;;;;;;1.58;0.55;;;10.50;99.90;;;;;;5110188;28;20464;-75
2022/01/03 04:57:32;;;;;;;2.05;0.60;;;10.50;99.90;;;;;;5110179;28;20231;-74
2022/01/03 04:59:58;;;;;;;3.63;0.77;;;10.40;99.90;;;;;;5110152;28;20172;-77
2022/01/03 05:02:24;;;;;;;3.13;1.20;;;10.40;99.90;;;;;;5110106;28;20024;-74
2022/01/03 05:04:50;;;;;;;5.00;0.88;;;10.40;99.90;;;;;;5110056;28;20031;-75
2022/01/03 05:07:15;;;;;;;5.65;0.70;;;10.30;99.90;;;;;;5110535;28;20586;-73
2022/01/03 05:09:41;;;;;;;3.28;1.13;;;10.30;99.90;;;;;;5109965;28;20062;-74
2022/01/03 05:12:08;;;;;;;3.45;0.50;;;10.30;99.90;;;;;;5109845;28;20047;-74
2022/01/03 05:14:33;;;;;;;2.10;0.50;;;10.40;99.90;;;;;;5110090;28;20039;-75
2022/01/03 05:16:59;;;;;;;0.32;0.32;;;10.40;99.90;;;;;;5110099;28;20500;-75
2022/01/03 05:19:25;;;;;;;3.63;0.50;;;10.30;99.90;;;;;;5110370;28;20106;-76
2022/01/03 05:21:51;;;;;;;3.40;0.50;;;10.30;99.90;;;;;;5091749;28;20165;-74
2022/01/03 05:24:17;;;;;;;0.20;0.20;;;10.30;99.90;;;;;;5109758;28;20026;-74
2022/01/03 05:26:43;;;;;;;4.85;0.50;;;10.40;99.90;;;;;;5110019;28;20031;-76
2022/01/03 05:29:09;;;;;;;4.07;0.40;;;10.40;99.90;;;;;;5109953;28;20016;-78
2022/01/03 05:31:35;;;;;;;1.75;0.47;;;10.40;99.90;;;;;;5115326;28;20079;-75
2022/01/03 05:34:01;;;;;;;0.88;0.40;;;10.40;99.90;;;;;;5115445;28;20278;-73
2022/01/03 05:36:27;;;;;;;1.65;0.35;;;10.50;99.90;;;;;;5119298;28;20059;-75
2022/01/03 05:38:53;;;;;;;11.25;0.93;;;10.50;99.90;;;;;;5100592;28;20066;-73
2022/01/03 05:41:19;;;;;;;4.18;0.40;;;10.50;99.90;;;;;;5100194;28;20020;-74
2022/01/03 05:43:45;;;;;;;1.10;0.63;;;10.50;99.90;;;;;;5118731;28;20058;-74
2022/01/03 05:46:12;;;;;;;1.17;0.55;;;10.50;99.90;;;;;;5122682;28;20094;-74
2022/01/03 05:48:38;;;;;;;4.00;1.17;;;10.50;99.90;;;;;;5120225;28;20099;-74
2022/01/03 05:51:03;;;;;;;0.35;0.20;;;10.40;99.90;;;;;;5105707;28;20031;-77
2022/01/03 05:53:32;;;;;;;3.67;0.60;;;10.40;99.90;;;;;;5104144;28;20046;-79
2022/01/03 05:56:01;;;;;;;0.73;0.60;;;10.50;99.90;;;;;;5104888;28;20043;-76
2022/01/03 05:58:27;;;;;;;3.00;0.40;;;10.40;99.90;;;;;;5100155;28;20024;-74
2022/01/03 06:00:53;;;;;;;0.47;0.28;;;10.50;99.90;;;;;;5101506;28;20031;-76
2022/01/03 06:03:23;;;;;;;4.82;0.47;;;10.50;99.90;;;;;;5079064;28;20019;-78
2022/01/03 06:08:21;;;;;;;1.75;0.50;;;10.60;99.90;;;;;;5090885;28;20016;-75
2022/01/03 06:10:47;;;;;;;2.80;0.50;;;10.50;99.90;;;;;;5072827;28;20024;-74
2022/01/03 06:13:14;;;;;;;2.70;1.10;;;10.40;99.90;;;;;;5079098;28;20235;-75
2022/01/03 06:15:40;;;;;;;2.08;0.30;;;10.40;99.90;;;;;;5079680;28;20377;-75
2022/01/03 06:18:11;;;;;;;4.85;0.60;;;10.40;99.90;;;;;;5096157;28;20101;-76
2022/01/03 06:20:41;;;;;;;2.95;0.68;;;10.40;99.90;;;;;;5073189;28;20035;-74
2022/01/03 06:23:09;;;;;;;4.72;0.50;;;10.40;99.90;;;;;;5073441;28;20012;-76
2022/01/03 06:25:35;;;;;;;2.88;0.77;;;10.40;99.90;;;;;;5072528;28;20067;-77
2022/01/03 06:28:01;;;;;;;1.05;0.40;;;10.40;99.90;;;;;;5075387;28;20032;-75
2022/01/03 06:30:27;;;;;;;3.88;0.50;;;10.40;99.90;;;;;;5072584;28;20024;-74
2022/01/03 06:32:52;;;;;;;3.15;0.68;;;10.60;99.90;;;;;;5080383;28;20047;-76
2022/01/03 06:35:18;;;;;;;3.80;1.08;;;10.70;99.90;;;;;;5084152;28;20036;-73
2022/01/03 06:37:44;;;;;;;6.00;0.50;;;10.60;99.90;;;;;;5077054;28;20115;-74
2022/01/03 06:40:10;;;;;;;2.30;0.47;;;10.60;99.90;;;;;;5076349;28;20063;-75
2022/01/03 06:42:36;;;;;;;6.32;0.63;;;10.60;99.90;;;;;;5092502;28;20060;-75
2022/01/03 06:45:02;;;;;;;5.32;0.90;;;10.50;99.90;;;;;;5090075;28;20070;-74
2022/01/03 06:47:29;;;;;;;3.35;0.85;;;10.50;99.90;;;;;;5090271;28;20024;-74
2022/01/03 06:49:54;;;;;;;4.85;1.50;;;10.50;99.90;;;;;;5072472;28;20288;-73
2022/01/03 06:52:20;;;;;;;4.43;1.15;;;10.60;99.90;;;;;;5071878;28;20119;-75
2022/01/03 06:54:46;;;;;;;2.38;0.38;;;10.60;99.90;;;;;;5071781;28;20430;-74
2022/01/03 06:57:12;;;;;;;0.35;0.30;;;10.60;99.90;;;;;;5071508;28;20024;-77
2022/01/03 06:59:38;;;;;;;2.85;0.60;;;10.70;99.90;;;;;;5091275;28;20024;-74
2022/01/03 07:02:05;;;;;;;1.27;0.80;;;10.70;99.90;;;;;;5092043;28;20024;-75
2022/01/03 07:04:31;;;;;;;2.17;0.40;;;10.80;99.90;;;;;;5091637;28;20032;-75
2022/01/03 07:06:56;;;;;;;3.33;0.88;;;10.70;99.90;;;;;;5090824;28;20133;-74
2022/01/03 07:09:22;;;;;;;1.42;0.43;;;10.70;99.90;;;;;;5073248;28;20130;-74
2022/01/03 07:11:48;;;;;;;6.97;1.75;;;10.70;99.90;;;;;;5073046;28;20372;-75
2022/01/03 07:20:03;;;;;;;1.40;0.50;;;10.60;99.90;;;;;;5091781;28;20043;-75
2022/01/03 07:22:29;;;;;;;6.03;1.48;;;10.60;99.90;;;;;;5072791;28;20024;-75
2022/01/03 07:24:55;;;;;;;3.88;0.93;;;10.60;99.90;;;;;;5073446;28;20342;-75
2022/01/03 07:27:21;;;;;;;5.40;0.93;;;10.60;99.90;;;;;;5073055;28;20024;-76
2022/01/03 07:29:48;;;;;;;5.57;0.82;;;10.60;99.90;;;;;;5072766;28;20442;-74
2022/01/03 07:32:14;;;;;;;5.68;0.80;;;10.50;99.90;;;;;;5072994;28;20088;-75
2022/01/03 07:34:40;;;;;;;3.95;1.17;;;10.60;99.90;;;;;;5091199;28;20048;-75
2022/01/03 07:37:05;;;;;;;3.45;1.05;;;10.60;99.90;;;;;;5091052;28;20111;-75
2022/01/03 07:39:34;;;;;;;3.42;0.50;;;10.70;99.90;;;;;;5072013;28;20044;-74
2022/01/03 07:42:00;;;;;;;9.75;1.67;;;10.70;99.90;;;;;;5091001;28;20027;-75
2022/01/03 07:44:26;;;;;;;2.35;0.65;;;10.50;99.90;;;;;;5072579;28;20043;-76
2022/01/03 07:46:54;;;;;;;3.33;0.45;;;10.50;99.90;;;;;;5072650;28;20020;-74
2022/01/03 07:49:21;;;;;;;2.08;0.52;;;10.50;99.90;;;;;;5090880;28;20024;-75
2022/01/03 07:51:46;;;;;;;2.28;0.63;;;10.50;99.90;;;;;;5090885;28;20464;-75
2022/01/03 07:54:12;;;;;;;6.15;0.65;;;10.50;99.90;;;;;;5090338;28;20031;-73
2022/01/03 07:56:38;;;;;;;2.80;0.57;;;10.50;99.90;;;;;;5072209;28;20461;-75
2022/01/03 07:59:05;;;;;;;1.45;0.57;;;10.50;99.90;;;;;;5090115;28;20036;-75
2022/01/03 08:01:31;;;;;;;4.32;1.17;;;10.50;99.90;;;;;;5072211;28;20028;-74
2022/01/03 08:03:57;;;;;;;4.85;0.85;;;10.50;99.90;;;;;;5090884;28;20456;-74
2022/01/03 08:06:23;;;;;;;10.68;1.25;;;10.60;99.90;;;;;;5072293;28;20035;-75
2022/01/03 08:08:49;;;;;;;1.95;0.47;;;10.60;99.90;;;;;;5067631;28;20020;-74
2022/01/03 08:11:14;;;;;;;7.63;1.10;;;10.60;99.90;;;;;;5095981;28;20042;-75
2022/01/03 08:13:40;;;;;;;6.55;1.05;;;10.60;99.90;;;;;;5101196;28;20026;-76
2022/01/03 08:16:06;;;;;;;5.68;0.52;;;10.70;99.90;;;;;;5080609;28;20354;-75
2022/01/03 08:18:32;;;;;;;1.33;0.63;;;10.70;99.90;;;;;;5069049;28;20051;-73
2022/01/03 08:20:59;;;;;;;1.45;0.40;;;10.80;99.90;;;;;;5069154;28;20398;-76
2022/01/03 08:23:24;;;;;;;1.27;0.47;;;10.70;99.90;;;;;;5087241;28;20103;-78
2022/01/03 08:25:50;;;;;;;1.73;0.52;;;10.70;99.90;;;;;;5070386;28;20226;-76
2022/01/03 08:28:16;;;;;;;5.03;0.55;;;10.80;99.90;;;;;;5079893;28;20084;-76
2022/01/03 08:30:42;;;;;;;5.88;0.50;;;10.80;99.90;;;;;;5088914;28;20502;-78
2022/01/03 08:33:08;;;;;;;1.63;0.50;;;10.80;99.90;;;;;;5106848;28;20027;-84
2022/01/03 08:35:34;;;;;;;1.80;0.95;;;10.80;99.90;;;;;;5089190;28;20033;-75
2022/01/03 08:37:59;;;;;;;4.22;0.55;;;10.90;99.90;;;;;;5088959;28;20031;-76
2022/01/03 08:40:26;;;;;;;3.63;0.47;;;10.90;99.90;;;;;;5108466;28;20067;-76
2022/01/03 08:42:52;;;;;;;6.90;0.60;;;10.90;99.90;;;;;;5075994;28;20387;-80
2022/01/03 08:45:19;;;;;;;0.88;0.73;;;10.90;99.90;;;;;;5071127;28;20035;-76
2022/01/03 08:47:46;;;;;;;2.42;0.60;;;10.90;99.90;;;;;;5071281;28;20051;-75
2022/01/03 08:50:12;;;;;;;5.85;0.60;;;10.90;99.90;;;;;;5088708;28;20111;-79
2022/01/03 08:52:38;;;;;;;2.15;0.30;;;10.90;99.90;;;;;;5087599;28;20552;-75
2022/01/03 08:55:04;;;;;;;3.15;0.60;;;10.80;99.90;;;;;;5069128;28;20127;-76
2022/01/03 08:57:30;;;;;;;2.67;1.20;;;10.80;99.90;;;;;;5068785;28;20051;-77
2022/01/03 08:59:56;;;;;;;2.58;0.50;;;10.80;99.90;;;;;;5086824;28;20074;-78
2022/01/03 09:02:21;;;;;;;1.98;0.60;;;10.90;99.90;;;;;;5069325;28;20024;-74
2022/01/03 09:04:47;;;;;;;2.55;0.50;;;10.80;99.90;;;;;;5079555;28;20090;-77
2022/01/03 09:07:13;;;;;;;5.85;1.48;;;10.90;99.90;;;;;;5088985;28;20035;-75
2022/01/03 09:09:40;;;;;;;2.78;0.40;;;10.90;99.90;;;;;;5107374;28;20034;-78
2022/01/03 09:12:07;;;;;;;3.00;0.57;;;10.90;99.90;;;;;;5106876;28;20039;-77
2022/01/03 09:14:33;;;;;;;8.60;1.25;;;10.80;99.90;;;;;;5107362;28;20513;-74
2022/01/03 09:16:59;;;;;;;5.57;0.55;;;10.80;99.90;;;;;;5088360;28;20050;-77
2022/01/03 09:19:25;;;;;;;4.03;0.93;;;10.90;99.90;;;;;;5090646;28;20511;-78
2022/01/03 09:21:59;;;;;;;3.78;1.05;;;10.90;99.90;;;;;;5092714;28;20102;-76
2022/01/03 09:24:32;;;;;;;5.78;1.15;;;10.90;99.90;;;;;;5092240;28;20402;-77
2022/01/03 09:29:43;;;;;;;6.60;1.08;;;11.00;99.90;;;;;;5111638;28;20030;-77
2022/01/03 09:32:09;;;;;;;2.92;0.45;;;11.00;99.90;;;;;;5110860;28;20031;-75
2022/01/03 09:34:35;;;;;;;5.40;1.90;;;11.00;99.90;;;;;;5092389;28;20119;-80
2022/01/03 09:37:01;;;;;;;1.48;0.68;;;11.10;99.90;;;;;;5092246;28;20043;-76
2022/01/03 09:39:27;;;;;;;3.42;0.55;;;11.10;99.90;;;;;;5111019;28;20039;-80
2022/01/03 09:42:01;;;;;;;4.80;0.55;;;11.10;99.90;;;;;;5092468;28;20023;-76
2022/01/03 09:44:32;;;;;;;1.90;0.40;;;11.10;99.90;;;;;;5110486;28;20502;-76
2022/01/03 09:47:04;;;;;;;1.73;1.05;;;11.20;99.90;;;;;;5110563;28;20028;-76
2022/01/03 09:49:35;;;;;;;3.97;1.17;;;11.10;99.90;;;;;;5110616;28;20093;-73
2022/01/03 09:52:06;;;;;;;3.00;0.75;;;11.70;99.90;;;;;;5091607;28;20402;-74
2022/01/03 09:54:32;;;;;;;4.55;0.70;;;11.30;99.90;;;;;;5091946;28;20060;-73
2022/01/03 09:57:01;;;;;;;3.67;0.50;;;11.40;99.90;;;;;;5091499;28;20026;-77
2022/01/03 09:59:27;;;;;;;3.95;0.60;;;11.40;99.90;;;;;;5092257;28;20092;-73
2022/01/03 10:01:55;;;;;;;3.38;1.23;;;11.40;99.90;;;;;;5110050;28;20102;-73
2022/01/03 10:04:21;;;;;;;13.93;1.73;;;11.40;99.90;;;;;;5102809;28;20077;-77
2022/01/03 10:06:48;;;;;;;2.28;0.95;;;11.50;99.90;;;;;;5090232;28;20601;-77
2022/01/03 10:09:13;;;;;;;0.47;0.30;;;11.60;99.90;;;;;;5071274;28;20020;-76
2022/01/03 10:11:39;;;;;;;1.83;0.57;;;11.60;99.90;;;;;;5089837;28;20508;-77
2022/01/03 10:14:05;;;;;;;8.45;1.45;;;11.60;99.90;;;;;;5071784;28;20046;-77
2022/01/03 10:16:31;;;;;;;0.95;0.50;;;11.70;99.90;;;;;;5071424;28;20488;-78
2022/01/03 10:18:58;;;;;;;3.58;0.60;;;11.70;99.90;;;;;;5089955;28;20038;-73
2022/01/03 10:21:46;;;;;;;3.45;1.52;;;11.70;99.90;;;;;;5070646;28;20028;-74
2022/01/03 10:24:14;;;;;;;3.40;0.80;;;11.70;99.90;;;;;;5069254;28;20024;-75
2022/01/03 10:26:42;;;;;;;4.30;0.80;;;11.70;99.90;;;;;;5088429;28;20186;-72
2022/01/03 10:29:22;;;;;;;9.75;1.77;;;11.90;99.90;;;;;;5089368;28;20020;-74
2022/01/03 10:31:54;;;;;;;6.88;0.98;;;11.90;99.90;;;;;;5085967;28;20104;-73
2022/01/03 10:34:23;;;;;;;1.58;0.90;;;11.90;99.90;;;;;;5087418;28;20028;-73
2022/01/03 10:36:49;;;;;;;;;;;11.90;99.90;;;;;;5087965;28;20073;-74
2022/01/03 10:39:28;;;;;;;2.13;0.52;;;11.90;99.90;;;;;;5087021;28;19924;-74
2022/01/03 10:42:16;;;;;;;2.72;0.68;;;11.90;99.90;;;;;;5087603;28;20574;-73
2022/01/03 10:44:42;;;;;;;2.33;0.40;;;11.80;99.90;;;;;;5068797;28;20032;-73
2022/01/03 10:47:10;;;;;;;5.65;1.48;;;11.80;99.90;;;;;;5071350;28;20034;-73
2022/01/03 10:49:38;;;;;;;8.75;4.63;;;11.80;99.90;;;;;;5073090;28;20092;-73
2022/01/03 10:52:22;;;;;;;6.45;1.80;;;11.90;99.90;;;;;;5088975;28;20036;-74
2022/01/03 10:55:11;;;;;;;2.15;0.75;;;12.00;99.90;;;;;;5086861;28;20038;-76
2022/01/03 10:57:54;;;;;;;6.22;1.35;;;12.00;99.90;;;;;;5110455;28;20376;-74
2022/01/03 11:00:29;;;;;;;1.75;0.65;;;11.90;99.90;;;;;;5090419;28;20032;-72
2022/01/03 11:05:50;;;;;;;2.63;0.68;;;11.90;99.90;;;;;;5107637;28;20043;-73
2022/01/03 11:11:01;;;;;;;4.93;0.90;;;12.00;99.90;;;;;;5089505;28;20081;-75
2022/01/03 11:13:27;;;;;;;3.45;0.60;;;12.00;99.90;;;;;;5072038;28;20458;-74
2022/01/03 11:15:53;;;;;;;0.43;0.38;;;12.10;99.90;;;;;;5088270;28;20028;-73
2022/01/03 11:18:24;;;;;;;4.40;1.85;;;12.30;99.90;;;;;;5070295;28;20077;-73
2022/01/03 11:21:01;;;;;;;2.83;1.00;;;12.30;99.90;;;;;;5088409;28;20425;-79
2022/01/03 11:23:27;;;;;;;7.25;0.40;;;12.30;99.90;;;;;;5089057;28;20028;-75
2022/01/03 11:25:54;;;;;;;1.58;0.40;;;12.40;99.90;;;;;;5088615;28;20043;-75
2022/01/03 11:28:25;;;;;;;7.20;0.63;;;12.40;99.90;;;;;;5085573;28;20388;-75
2022/01/03 11:30:55;;;;;;;3.58;1.35;;;12.30;99.90;;;;;;5107983;28;20035;-73
2022/01/03 11:33:21;;;;;;;2.03;0.57;;;12.20;99.90;;;;;;5108291;28;20023;-73
2022/01/03 11:35:49;;;;;;;8.13;1.15;;;12.20;99.90;;;;;;5089782;28;20032;-75
2022/01/03 11:38:18;;;;;;;2.28;0.98;;;12.10;99.90;;;;;;5107429;28;20050;-75
2022/01/03 11:40:45;;;;;;;6.47;0.50;;;12.20;99.90;;;;;;5089685;28;20108;-78
2022/01/03 11:43:11;;;;;;;1.42;0.77;;;12.20;99.90;;;;;;5107912;28;20028;-74
2022/01/03 11:45:37;;;;;;;2.78;0.45;;;12.30;99.90;;;;;;5108073;28;20388;-74
2022/01/03 11:48:03;;;;;;;2.88;0.68;;;10.90;99.90;;;;;;5107917;28;20024;-74
2022/01/03 11:50:30;;;;;;;3.22;0.65;;;12.30;99.90;;;;;;5089620;28;20047;-75
2022/01/03 11:52:56;;;;;;;3.22;0.40;;;12.20;99.90;;;;;;5088928;28;20024;-74
2022/01/03 11:55:24;;;;;;;5.43;1.08;;;12.20;99.90;;;;;;5089731;28;20047;-73
2022/01/03 11:58:27;;;;;;;4.03;0.40;;;12.20;99.90;;;;;;5089696;28;20047;-73
2022/01/03 12:04:18;;;;;;;0.80;0.43;;;12.40;99.90;;;;;;5052056;28;20025;-73
2022/01/03 12:06:45;;;;;;;5.93;0.45;;;12.40;99.90;;;;;;5071059;28;20024;-75
2022/01/03 12:09:13;;;;;;;1.52;0.73;;;12.50;99.90;;;;;;5067171;28;20596;-74
2022/01/03 12:11:52;;;;;;;0.45;0.20;;;12.50;99.90;;;;;;5085633;28;20032;-74
2022/01/03 12:14:19;;;;;;;1.52;0.45;;;12.50;99.90;;;;;;5067147;28;20484;-74
2022/01/03 12:16:48;;;;;;;4.65;0.57;;;12.50;99.90;;;;;;5067311;28;20105;-74
2022/01/03 12:19:37;;;;;;;2.28;0.50;;;12.50;99.90;;;;;;5066923;28;20016;-73
2022/01/03 12:22:22;;;;;;;1.88;0.22;;;12.60;99.90;;;;;;5085328;28;20024;-74
2022/01/03 12:24:49;;;;;;;4.68;0.80;;;12.60;99.90;;;;;;5067288;28;20036;-76
2022/01/03 12:27:16;;;;;;;0.77;0.50;;;12.60;99.90;;;;;;5067140;28;20024;-73
2022/01/03 12:29:57;;;;;;;3.40;0.73;;;12.70;99.90;;;;;;5067426;28;20067;-74
2022/01/03 12:32:27;;;;;;;3.83;0.40;;;12.70;99.90;;;;;;5067065;28;20024;-75
2022/01/03 12:35:12;;;;;;;3.20;0.55;;;12.70;99.90;;;;;;5085974;28;20035;-76
2022/01/03 12:37:47;;;;;;;1.48;0.63;;;12.80;99.90;;;;;;5068233;28;20028;-73
2022/01/03 12:40:42;;;;;;;1.85;0.40;;;12.80;99.90;;;;;;5080022;28;20765;-74
2022/01/03 12:43:12;;;;;;;1.52;0.52;;;12.80;99.90;;;;;;5047479;28;20052;-77
2022/01/03 12:45:43;;;;;;;3.05;0.40;;;12.80;99.90;;;;;;5086640;28;20036;-74
2022/01/03 12:48:08;;;;;;;1.45;0.40;;;12.70;99.90;;;;;;5068471;28;20031;-74
2022/01/03 12:51:00;;;;;;;3.20;0.43;;;12.70;99.90;;;;;;5068557;28;20028;-74
2022/01/03 12:53:32;;;;;;;1.40;0.47;;;12.60;99.90;;;;;;5074987;28;20040;-74
2022/01/03 12:56:00;;;;;;;1.85;0.40;;;12.60;99.90;;;;;;5086505;28;20028;-73
2022/01/03 12:58:26;;;;;;;1.33;0.30;;;12.60;99.90;;;;;;5068576;28;20108;-72
2022/01/03 13:00:54;;;;;;;1.50;0.30;;;12.60;99.90;;;;;;5086770;28;20153;-76
2022/01/03 13:03:42;;;;;;;3.53;0.50;;;12.40;99.90;;;;;;5068243;28;20048;-73
2022/01/03 13:06:31;;;;;;;1.27;0.22;;;12.30;99.90;;;;;;5068328;28;20128;-74
2022/01/03 13:08:57;;;;;;;2.17;0.32;;;12.20;99.90;;;;;;5085027;28;20481;-74
2022/01/03 13:11:33;;;;;;;1.02;0.40;;;12.00;99.90;;;;;;5087150;28;20020;-74
2022/01/03 13:14:02;;;;;;;2.83;0.85;;;11.90;99.90;;;;;;5086983;28;20111;-75
2022/01/03 13:16:32;;;;;;;0.70;0.53;;;11.90;99.90;;;;;;5086460;28;20031;-75